sensor_id;sensor_type;location;lat;lon;timestamp;P1;durP1;ratioP1;P2;durP2;ratioP2
10497;SDS011;5296;51.060;13.750;2023-02-19T00:01:39;2.47;;;2.28;;
10497;SDS011;5296;51.060;13.750;2023-02-19T00:06:43;2.33;;;2.13;;
10497;SDS011;5296;51.060;13.750;2023-02-19T00:11:46;2.20;;;2.00;;
10497;SDS011;5296;51.060;13.750;2023-02-19T00:16:48;2.30;;;2.10;;
10497;SDS011;5296;51.060;13.750;2023-02-19T00:21:50;2.50;;;2.17;;
10497;SDS011;5296;51.060;13.750;2023-02-19T00:26:53;2.25;;;2.05;;
10497;SDS011;5296;51.060;13.750;2023-02-19T00:31:54;2.63;;;1.95;;
10497;SDS011;5296;51.060;13.750;2023-02-19T00:36:56;2.25;;;1.88;;
10497;SDS011;5296;51.060;13.750;2023-02-19T00:41:57;2.33;;;1.70;;
10497;SDS011;5296;51.060;13.750;2023-02-19T00:47:01;3.13;;;2.20;;
10497;SDS011;5296;51.060;13.750;2023-02-19T00:52:04;2.58;;;2.22;;
10497;SDS011;5296;51.060;13.750;2023-02-19T00:57:06;2.42;;;1.98;;
10497;SDS011;5296;51.060;13.750;2023-02-19T01:02:07;2.50;;;2.15;;
10497;SDS011;5296;51.060;13.750;2023-02-19T01:07:09;4.18;;;2.30;;
10497;SDS011;5296;51.060;13.750;2023-02-19T01:12:11;3.53;;;2.50;;
10497;SDS011;5296;51.060;13.750;2023-02-19T01:17:12;3.58;;;2.17;;
10497;SDS011;5296;51.060;13.750;2023-02-19T01:22:14;1.95;;;1.80;;
10497;SDS011;5296;51.060;13.750;2023-02-19T01:27:15;3.03;;;1.90;;
10497;SDS011;5296;51.060;13.750;2023-02-19T01:32:17;2.83;;;1.85;;
10497;SDS011;5296;51.060;13.750;2023-02-19T01:37:19;2.80;;;1.77;;
10497;SDS011;5296;51.060;13.750;2023-02-19T01:42:20;2.00;;;1.73;;
10497;SDS011;5296;51.060;13.750;2023-02-19T01:47:22;3.17;;;1.95;;
10497;SDS011;5296;51.060;13.750;2023-02-19T01:52:25;2.60;;;2.10;;
10497;SDS011;5296;51.060;13.750;2023-02-19T01:57:32;2.47;;;2.22;;
10497;SDS011;5296;51.060;13.750;2023-02-19T02:02:36;2.97;;;2.20;;
10497;SDS011;5296;51.060;13.750;2023-02-19T02:07:39;2.38;;;2.17;;
10497;SDS011;5296;51.060;13.750;2023-02-19T02:12:59;2.78;;;2.20;;
10497;SDS011;5296;51.060;13.750;2023-02-19T02:18:04;2.33;;;2.13;;
10497;SDS011;5296;51.060;13.750;2023-02-19T02:33:53;1.92;;;1.50;;
10497;SDS011;5296;51.060;13.750;2023-02-19T02:38:59;1.42;;;1.30;;
10497;SDS011;5296;51.060;13.750;2023-02-19T02:44:08;1.92;;;1.38;;
10497;SDS011;5296;51.060;13.750;2023-02-19T02:49:18;1.40;;;1.30;;
10497;SDS011;5296;51.060;13.750;2023-02-19T02:54:31;1.30;;;1.20;;
10497;SDS011;5296;51.060;13.750;2023-02-19T02:59:55;1.42;;;1.17;;
10497;SDS011;5296;51.060;13.750;2023-02-19T03:10:29;1.20;;;1.08;;
10497;SDS011;5296;51.060;13.750;2023-02-19T03:15:38;1.23;;;1.20;;
10497;SDS011;5296;51.060;13.750;2023-02-19T03:21:01;1.02;;;0.80;;
10497;SDS011;5296;51.060;13.750;2023-02-19T03:26:04;0.88;;;0.88;;
10497;SDS011;5296;51.060;13.750;2023-02-19T03:31:14;1.55;;;0.80;;
10497;SDS011;5296;51.060;13.750;2023-02-19T03:36:18;0.90;;;0.90;;
10497;SDS011;5296;51.060;13.750;2023-02-19T03:57:27;1.08;;;1.08;;
10497;SDS011;5296;51.060;13.750;2023-02-19T04:02:36;1.70;;;1.17;;
10497;SDS011;5296;51.060;13.750;2023-02-19T04:07:47;1.30;;;1.20;;
10497;SDS011;5296;51.060;13.750;2023-02-19T04:18:30;0.60;;;0.60;;
10497;SDS011;5296;51.060;13.750;2023-02-19T04:23:37;0.90;;;0.88;;
10497;SDS011;5296;51.060;13.750;2023-02-19T04:28:41;1.35;;;0.80;;
10497;SDS011;5296;51.060;13.750;2023-02-19T04:33:44;0.80;;;0.60;;
10497;SDS011;5296;51.060;13.750;2023-02-19T04:38:45;0.93;;;0.93;;
10497;SDS011;5296;51.060;13.750;2023-02-19T04:43:47;0.70;;;0.70;;
10497;SDS011;5296;51.060;13.750;2023-02-19T04:48:49;1.45;;;0.68;;
10497;SDS011;5296;51.060;13.750;2023-02-19T04:53:50;0.52;;;0.40;;
10497;SDS011;5296;51.060;13.750;2023-02-19T04:58:52;0.73;;;0.73;;
10497;SDS011;5296;51.060;13.750;2023-02-19T05:03:53;1.05;;;0.85;;
10497;SDS011;5296;51.060;13.750;2023-02-19T05:08:55;0.85;;;0.85;;
10497;SDS011;5296;51.060;13.750;2023-02-19T05:13:56;0.82;;;0.82;;
10497;SDS011;5296;51.060;13.750;2023-02-19T05:18:58;1.92;;;0.77;;
10497;SDS011;5296;51.060;13.750;2023-02-19T05:24:00;1.15;;;0.65;;
10497;SDS011;5296;51.060;13.750;2023-02-19T05:29:01;0.80;;;0.80;;
10497;SDS011;5296;51.060;13.750;2023-02-19T05:34:03;0.70;;;0.70;;
10497;SDS011;5296;51.060;13.750;2023-02-19T05:39:05;0.52;;;0.52;;
10497;SDS011;5296;51.060;13.750;2023-02-19T05:44:08;0.60;;;0.60;;
10497;SDS011;5296;51.060;13.750;2023-02-19T05:49:11;0.47;;;0.40;;
10497;SDS011;5296;51.060;13.750;2023-02-19T05:54:12;1.38;;;0.57;;
10497;SDS011;5296;51.060;13.750;2023-02-19T05:59:18;0.50;;;0.50;;
10497;SDS011;5296;51.060;13.750;2023-02-19T06:04:21;0.45;;;0.45;;
10497;SDS011;5296;51.060;13.750;2023-02-19T06:09:23;0.60;;;0.60;;
10497;SDS011;5296;51.060;13.750;2023-02-19T06:14:25;0.50;;;0.50;;
10497;SDS011;5296;51.060;13.750;2023-02-19T06:19:26;0.40;;;0.40;;
10497;SDS011;5296;51.060;13.750;2023-02-19T06:24:28;0.43;;;0.43;;
10497;SDS011;5296;51.060;13.750;2023-02-19T06:29:30;0.60;;;0.60;;
10497;SDS011;5296;51.060;13.750;2023-02-19T06:34:33;0.77;;;0.77;;
10497;SDS011;5296;51.060;13.750;2023-02-19T06:39:35;0.80;;;0.70;;
10497;SDS011;5296;51.060;13.750;2023-02-19T06:44:36;3.58;;;0.70;;
10497;SDS011;5296;51.060;13.750;2023-02-19T06:49:38;0.68;;;0.68;;
10497;SDS011;5296;51.060;13.750;2023-02-19T06:54:40;0.60;;;0.60;;
10497;SDS011;5296;51.060;13.750;2023-02-19T06:59:42;0.90;;;0.73;;
10497;SDS011;5296;51.060;13.750;2023-02-19T07:04:43;0.80;;;0.80;;
10497;SDS011;5296;51.060;13.750;2023-02-19T07:09:45;1.60;;;0.70;;
10497;SDS011;5296;51.060;13.750;2023-02-19T07:14:46;0.77;;;0.77;;
10497;SDS011;5296;51.060;13.750;2023-02-19T07:19:48;1.17;;;1.05;;
10497;SDS011;5296;51.060;13.750;2023-02-19T07:24:50;1.20;;;0.98;;
10497;SDS011;5296;51.060;13.750;2023-02-19T07:29:51;0.77;;;0.77;;
10497;SDS011;5296;51.060;13.750;2023-02-19T07:34:53;0.70;;;0.70;;
10497;SDS011;5296;51.060;13.750;2023-02-19T07:39:55;0.60;;;0.60;;
10497;SDS011;5296;51.060;13.750;2023-02-19T07:44:56;0.80;;;0.80;;
10497;SDS011;5296;51.060;13.750;2023-02-19T07:50:00;0.93;;;0.85;;
10497;SDS011;5296;51.060;13.750;2023-02-19T07:55:02;0.60;;;0.60;;
10497;SDS011;5296;51.060;13.750;2023-02-19T08:00:04;0.80;;;0.80;;
10497;SDS011;5296;51.060;13.750;2023-02-19T08:05:12;1.70;;;0.63;;
10497;SDS011;5296;51.060;13.750;2023-02-19T08:10:14;0.80;;;0.80;;
10497;SDS011;5296;51.060;13.750;2023-02-19T08:15:34;1.27;;;0.80;;
10497;SDS011;5296;51.060;13.750;2023-02-19T08:20:36;1.10;;;1.10;;
10497;SDS011;5296;51.060;13.750;2023-02-19T08:25:38;1.25;;;1.13;;
10497;SDS011;5296;51.060;13.750;2023-02-19T08:30:41;1.00;;;1.00;;
10497;SDS011;5296;51.060;13.750;2023-02-19T08:35:46;1.45;;;0.90;;
10497;SDS011;5296;51.060;13.750;2023-02-19T08:40:48;1.60;;;1.25;;
10497;SDS011;5296;51.060;13.750;2023-02-19T08:45:51;1.20;;;1.15;;
10497;SDS011;5296;51.060;13.750;2023-02-19T08:50:57;1.60;;;1.50;;
10497;SDS011;5296;51.060;13.750;2023-02-19T08:56:07;1.90;;;1.10;;
10497;SDS011;5296;51.060;13.750;2023-02-19T09:01:14;1.90;;;1.35;;
10497;SDS011;5296;51.060;13.750;2023-02-19T09:06:19;1.27;;;1.17;;
10497;SDS011;5296;51.060;13.750;2023-02-19T09:11:20;1.40;;;1.30;;
10497;SDS011;5296;51.060;13.750;2023-02-19T09:16:22;0.80;;;0.80;;
10497;SDS011;5296;51.060;13.750;2023-02-19T09:21:24;1.55;;;1.15;;
10497;SDS011;5296;51.060;13.750;2023-02-19T09:26:25;1.10;;;1.10;;
10497;SDS011;5296;51.060;13.750;2023-02-19T09:31:27;0.95;;;0.95;;
10497;SDS011;5296;51.060;13.750;2023-02-19T09:36:29;0.90;;;0.90;;
10497;SDS011;5296;51.060;13.750;2023-02-19T09:41:32;1.30;;;1.00;;
10497;SDS011;5296;51.060;13.750;2023-02-19T09:46:37;1.10;;;1.00;;
10497;SDS011;5296;51.060;13.750;2023-02-19T09:51:46;0.80;;;0.80;;
10497;SDS011;5296;51.060;13.750;2023-02-19T09:56:52;1.10;;;1.00;;
10497;SDS011;5296;51.060;13.750;2023-02-19T10:07:18;2.40;;;1.08;;
10497;SDS011;5296;51.060;13.750;2023-02-19T10:12:26;1.95;;;1.27;;
10497;SDS011;5296;51.060;13.750;2023-02-19T10:17:29;1.70;;;1.08;;
10497;SDS011;5296;51.060;13.750;2023-02-19T10:22:34;1.60;;;1.20;;
10497;SDS011;5296;51.060;13.750;2023-02-19T10:27:36;1.98;;;1.02;;
10497;SDS011;5296;51.060;13.750;2023-02-19T10:32:38;2.50;;;1.60;;
10497;SDS011;5296;51.060;13.750;2023-02-19T10:37:58;1.20;;;1.00;;
10497;SDS011;5296;51.060;13.750;2023-02-19T10:43:01;1.40;;;1.20;;
10497;SDS011;5296;51.060;13.750;2023-02-19T10:48:04;1.90;;;1.40;;
10497;SDS011;5296;51.060;13.750;2023-02-19T10:53:07;1.70;;;1.60;;
10497;SDS011;5296;51.060;13.750;2023-02-19T10:58:22;1.95;;;1.40;;
10497;SDS011;5296;51.060;13.750;2023-02-19T11:03:28;1.80;;;1.37;;
10497;SDS011;5296;51.060;13.750;2023-02-19T11:08:32;2.25;;;1.48;;
10497;SDS011;5296;51.060;13.750;2023-02-19T11:13:45;1.52;;;1.10;;
10497;SDS011;5296;51.060;13.750;2023-02-19T11:18:53;1.20;;;1.10;;
10497;SDS011;5296;51.060;13.750;2023-02-19T11:24:01;1.83;;;1.40;;
10497;SDS011;5296;51.060;13.750;2023-02-19T11:29:16;2.70;;;1.10;;
10497;SDS011;5296;51.060;13.750;2023-02-19T11:39:26;3.42;;;1.40;;
10497;SDS011;5296;51.060;13.750;2023-02-19T11:55:20;2.05;;;1.13;;
10497;SDS011;5296;51.060;13.750;2023-02-19T12:00:47;3.45;;;1.40;;
10497;SDS011;5296;51.060;13.750;2023-02-19T12:05:59;2.17;;;1.20;;
10497;SDS011;5296;51.060;13.750;2023-02-19T12:32:23;2.70;;;1.48;;
10497;SDS011;5296;51.060;13.750;2023-02-19T12:37:40;2.15;;;1.50;;
10497;SDS011;5296;51.060;13.750;2023-02-19T12:42:59;3.42;;;1.50;;
10497;SDS011;5296;51.060;13.750;2023-02-19T12:48:22;3.60;;;1.67;;
10497;SDS011;5296;51.060;13.750;2023-02-19T12:53:48;2.53;;;1.60;;
10497;SDS011;5296;51.060;13.750;2023-02-19T12:58:57;1.85;;;1.08;;
10497;SDS011;5296;51.060;13.750;2023-02-19T13:09:10;2.08;;;1.15;;
10497;SDS011;5296;51.060;13.750;2023-02-19T13:19:27;2.10;;;1.08;;
10497;SDS011;5296;51.060;13.750;2023-02-19T13:24:31;2.65;;;0.95;;
10497;SDS011;5296;51.060;13.750;2023-02-19T13:29:40;1.60;;;1.02;;
10497;SDS011;5296;51.060;13.750;2023-02-19T13:40:34;2.15;;;1.00;;
10497;SDS011;5296;51.060;13.750;2023-02-19T13:45:43;2.17;;;1.20;;
10497;SDS011;5296;51.060;13.750;2023-02-19T13:50:46;2.17;;;1.27;;
10497;SDS011;5296;51.060;13.750;2023-02-19T13:55:49;1.92;;;1.30;;
10497;SDS011;5296;51.060;13.750;2023-02-19T14:00:52;1.60;;;0.95;;
10497;SDS011;5296;51.060;13.750;2023-02-19T14:05:56;3.53;;;1.08;;
10497;SDS011;5296;51.060;13.750;2023-02-19T14:11:01;1.95;;;1.20;;
10497;SDS011;5296;51.060;13.750;2023-02-19T14:16:03;1.77;;;0.80;;
10497;SDS011;5296;51.060;13.750;2023-02-19T14:21:06;2.42;;;1.33;;
10497;SDS011;5296;51.060;13.750;2023-02-19T14:26:18;2.33;;;1.13;;
10497;SDS011;5296;51.060;13.750;2023-02-19T14:31:31;1.55;;;0.73;;
10497;SDS011;5296;51.060;13.750;2023-02-19T14:36:36;2.63;;;1.10;;
10497;SDS011;5296;51.060;13.750;2023-02-19T14:41:45;2.38;;;1.00;;
10497;SDS011;5296;51.060;13.750;2023-02-19T14:46:53;3.60;;;1.10;;
10497;SDS011;5296;51.060;13.750;2023-02-19T14:52:09;2.22;;;1.20;;
10497;SDS011;5296;51.060;13.750;2023-02-19T14:57:29;2.13;;;1.20;;
10497;SDS011;5296;51.060;13.750;2023-02-19T15:02:40;2.95;;;1.08;;
10497;SDS011;5296;51.060;13.750;2023-02-19T15:07:42;2.97;;;1.45;;
10497;SDS011;5296;51.060;13.750;2023-02-19T15:12:45;3.25;;;1.10;;
10497;SDS011;5296;51.060;13.750;2023-02-19T15:17:50;1.38;;;1.25;;
10497;SDS011;5296;51.060;13.750;2023-02-19T15:22:53;3.20;;;1.17;;
10497;SDS011;5296;51.060;13.750;2023-02-19T15:27:55;2.17;;;1.17;;
10497;SDS011;5296;51.060;13.750;2023-02-19T15:32:58;3.78;;;1.50;;
10497;SDS011;5296;51.060;13.750;2023-02-19T15:38:00;1.95;;;1.20;;
10497;SDS011;5296;51.060;13.750;2023-02-19T15:43:02;2.67;;;1.23;;
10497;SDS011;5296;51.060;13.750;2023-02-19T15:48:06;2.30;;;1.67;;
10497;SDS011;5296;51.060;13.750;2023-02-19T15:53:18;2.05;;;1.42;;
10497;SDS011;5296;51.060;13.750;2023-02-19T16:03:47;2.60;;;1.50;;
10497;SDS011;5296;51.060;13.750;2023-02-19T16:09:02;3.05;;;1.23;;
10497;SDS011;5296;51.060;13.750;2023-02-19T16:14:21;3.65;;;1.70;;
10497;SDS011;5296;51.060;13.750;2023-02-19T16:19:27;2.70;;;1.35;;
10497;SDS011;5296;51.060;13.750;2023-02-19T16:24:31;1.90;;;1.30;;
10497;SDS011;5296;51.060;13.750;2023-02-19T16:29:36;2.15;;;1.70;;
10497;SDS011;5296;51.060;13.750;2023-02-19T16:34:42;2.45;;;1.50;;
10497;SDS011;5296;51.060;13.750;2023-02-19T16:39:47;2.95;;;1.65;;
10497;SDS011;5296;51.060;13.750;2023-02-19T16:44:48;2.22;;;1.73;;
10497;SDS011;5296;51.060;13.750;2023-02-19T16:49:50;2.17;;;1.55;;
10497;SDS011;5296;51.060;13.750;2023-02-19T16:54:52;3.17;;;2.05;;
10497;SDS011;5296;51.060;13.750;2023-02-19T16:59:54;2.15;;;1.70;;
10497;SDS011;5296;51.060;13.750;2023-02-19T17:04:55;3.45;;;2.00;;
10497;SDS011;5296;51.060;13.750;2023-02-19T17:09:57;2.92;;;2.47;;
10497;SDS011;5296;51.060;13.750;2023-02-19T17:14:58;2.13;;;1.60;;
10497;SDS011;5296;51.060;13.750;2023-02-19T17:20:00;3.97;;;2.30;;
10497;SDS011;5296;51.060;13.750;2023-02-19T17:25:02;3.58;;;2.20;;
10497;SDS011;5296;51.060;13.750;2023-02-19T17:30:09;4.40;;;2.22;;
10497;SDS011;5296;51.060;13.750;2023-02-19T17:35:12;4.35;;;2.28;;
10497;SDS011;5296;51.060;13.750;2023-02-19T17:40:29;2.42;;;1.80;;
10497;SDS011;5296;51.060;13.750;2023-02-19T17:45:34;3.28;;;1.90;;
10497;SDS011;5296;51.060;13.750;2023-02-19T17:50:35;4.90;;;1.95;;
10497;SDS011;5296;51.060;13.750;2023-02-19T17:55:37;2.47;;;1.70;;
10497;SDS011;5296;51.060;13.750;2023-02-19T18:00:39;5.40;;;1.90;;
10497;SDS011;5296;51.060;13.750;2023-02-19T18:05:40;3.17;;;1.90;;
10497;SDS011;5296;51.060;13.750;2023-02-19T18:10:42;3.08;;;1.40;;
10497;SDS011;5296;51.060;13.750;2023-02-19T18:15:44;2.80;;;2.20;;
10497;SDS011;5296;51.060;13.750;2023-02-19T18:20:45;4.15;;;2.17;;
10497;SDS011;5296;51.060;13.750;2023-02-19T18:25:47;3.90;;;2.10;;
10497;SDS011;5296;51.060;13.750;2023-02-19T18:30:48;4.22;;;3.40;;
10497;SDS011;5296;51.060;13.750;2023-02-19T18:35:50;6.18;;;3.13;;
10497;SDS011;5296;51.060;13.750;2023-02-19T18:40:52;3.55;;;2.53;;
10497;SDS011;5296;51.060;13.750;2023-02-19T18:45:53;3.05;;;1.90;;
10497;SDS011;5296;51.060;13.750;2023-02-19T18:50:55;3.75;;;2.00;;
10497;SDS011;5296;51.060;13.750;2023-02-19T18:55:57;6.97;;;2.00;;
10497;SDS011;5296;51.060;13.750;2023-02-19T19:01:00;4.30;;;2.00;;
10497;SDS011;5296;51.060;13.750;2023-02-19T19:06:02;3.75;;;2.30;;
10497;SDS011;5296;51.060;13.750;2023-02-19T19:11:03;3.42;;;2.53;;
10497;SDS011;5296;51.060;13.750;2023-02-19T19:16:05;4.80;;;2.47;;
10497;SDS011;5296;51.060;13.750;2023-02-19T19:21:07;6.82;;;2.72;;
10497;SDS011;5296;51.060;13.750;2023-02-19T19:26:11;4.63;;;2.70;;
10497;SDS011;5296;51.060;13.750;2023-02-19T19:31:14;4.65;;;3.03;;
10497;SDS011;5296;51.060;13.750;2023-02-19T19:36:19;5.75;;;2.90;;
10497;SDS011;5296;51.060;13.750;2023-02-19T19:41:22;4.25;;;2.90;;
10497;SDS011;5296;51.060;13.750;2023-02-19T19:46:23;4.97;;;2.63;;
10497;SDS011;5296;51.060;13.750;2023-02-19T19:51:34;3.75;;;2.65;;
10497;SDS011;5296;51.060;13.750;2023-02-19T19:56:43;5.85;;;2.65;;
10497;SDS011;5296;51.060;13.750;2023-02-19T20:01:47;5.13;;;3.15;;
10497;SDS011;5296;51.060;13.750;2023-02-19T20:06:58;6.00;;;3.03;;
10497;SDS011;5296;51.060;13.750;2023-02-19T20:12:00;6.55;;;3.20;;
10497;SDS011;5296;51.060;13.750;2023-02-19T20:17:02;5.00;;;2.75;;
10497;SDS011;5296;51.060;13.750;2023-02-19T20:22:03;5.82;;;2.67;;
10497;SDS011;5296;51.060;13.750;2023-02-19T20:27:05;3.30;;;2.25;;
10497;SDS011;5296;51.060;13.750;2023-02-19T20:32:07;6.65;;;3.33;;
10497;SDS011;5296;51.060;13.750;2023-02-19T20:37:09;5.85;;;2.83;;
10497;SDS011;5296;51.060;13.750;2023-02-19T20:42:10;4.65;;;2.80;;
10497;SDS011;5296;51.060;13.750;2023-02-19T20:47:17;4.30;;;2.70;;
10497;SDS011;5296;51.060;13.750;2023-02-19T20:52:18;4.50;;;2.80;;
10497;SDS011;5296;51.060;13.750;2023-02-19T20:57:24;8.63;;;2.70;;
10497;SDS011;5296;51.060;13.750;2023-02-19T21:02:26;4.40;;;2.55;;
10497;SDS011;5296;51.060;13.750;2023-02-19T21:07:29;4.05;;;3.00;;
10497;SDS011;5296;51.060;13.750;2023-02-19T21:12:31;4.80;;;3.50;;
10497;SDS011;5296;51.060;13.750;2023-02-19T21:17:33;5.25;;;3.45;;
10497;SDS011;5296;51.060;13.750;2023-02-19T21:22:35;4.85;;;3.53;;
10497;SDS011;5296;51.060;13.750;2023-02-19T21:27:37;7.03;;;3.40;;
10497;SDS011;5296;51.060;13.750;2023-02-19T21:32:38;5.03;;;3.88;;
10497;SDS011;5296;51.060;13.750;2023-02-19T21:37:40;5.95;;;3.50;;
10497;SDS011;5296;51.060;13.750;2023-02-19T21:42:43;4.80;;;3.10;;
10497;SDS011;5296;51.060;13.750;2023-02-19T21:47:45;5.90;;;3.83;;
10497;SDS011;5296;51.060;13.750;2023-02-19T21:52:47;5.25;;;3.92;;
10497;SDS011;5296;51.060;13.750;2023-02-19T21:57:48;8.20;;;4.60;;
10497;SDS011;5296;51.060;13.750;2023-02-19T22:02:50;6.38;;;3.75;;
10497;SDS011;5296;51.060;13.750;2023-02-19T22:07:52;7.20;;;4.20;;
10497;SDS011;5296;51.060;13.750;2023-02-19T22:12:54;6.30;;;4.10;;
10497;SDS011;5296;51.060;13.750;2023-02-19T22:17:55;6.23;;;3.73;;
10497;SDS011;5296;51.060;13.750;2023-02-19T22:22:57;4.73;;;3.53;;
10497;SDS011;5296;51.060;13.750;2023-02-19T22:27:59;5.22;;;3.28;;
10497;SDS011;5296;51.060;13.750;2023-02-19T22:33:00;4.07;;;3.50;;
10497;SDS011;5296;51.060;13.750;2023-02-19T22:38:03;5.95;;;3.30;;
10497;SDS011;5296;51.060;13.750;2023-02-19T22:43:04;6.20;;;4.00;;
10497;SDS011;5296;51.060;13.750;2023-02-19T22:48:06;5.03;;;3.67;;
10497;SDS011;5296;51.060;13.750;2023-02-19T22:53:07;5.57;;;3.23;;
10497;SDS011;5296;51.060;13.750;2023-02-19T22:58:09;5.88;;;3.45;;
10497;SDS011;5296;51.060;13.750;2023-02-19T23:03:11;5.93;;;3.70;;
10497;SDS011;5296;51.060;13.750;2023-02-19T23:08:12;8.63;;;3.92;;
10497;SDS011;5296;51.060;13.750;2023-02-19T23:13:14;7.65;;;3.92;;
10497;SDS011;5296;51.060;13.750;2023-02-19T23:18:16;4.57;;;3.40;;
10497;SDS011;5296;51.060;13.750;2023-02-19T23:23:17;5.67;;;3.70;;
10497;SDS011;5296;51.060;13.750;2023-02-19T23:28:19;7.70;;;4.67;;
10497;SDS011;5296;51.060;13.750;2023-02-19T23:33:21;5.90;;;4.07;;
10497;SDS011;5296;51.060;13.750;2023-02-19T23:38:22;5.18;;;4.03;;
10497;SDS011;5296;51.060;13.750;2023-02-19T23:43:24;7.70;;;4.70;;
10497;SDS011;5296;51.060;13.750;2023-02-19T23:48:26;5.75;;;4.50;;
10497;SDS011;5296;51.060;13.750;2023-02-19T23:53:27;6.57;;;4.20;;
10497;SDS011;5296;51.060;13.750;2023-02-19T23:58:29;6.43;;;4.15;;
